createdAt,value
2022-10-24T00:02:11.648Z,100504.59
2022-10-24T00:04:41.874Z,100500.47
2022-10-24T00:07:12.724Z,100497.00
2022-10-24T00:09:41.712Z,100491.72
2022-10-24T00:12:11.047Z,100494.84
2022-10-24T00:14:40.108Z,100503.91
2022-10-24T00:17:09.079Z,100505.00
2022-10-24T00:19:38.079Z,100495.31
2022-10-24T00:22:07.079Z,100499.09
2022-10-24T00:24:37.405Z,100493.13
2022-10-24T00:27:06.653Z,100493.31
2022-10-24T00:29:36.379Z,100493.13
2022-10-24T00:32:05.721Z,100493.63
2022-10-24T00:34:34.772Z,100494.78
2022-10-24T00:37:04.059Z,100490.00
2022-10-24T00:39:33.127Z,100491.81
2022-10-24T00:42:04.177Z,100497.06
2022-10-24T00:44:34.851Z,100492.63
2022-10-24T00:47:07.906Z,100492.63
2022-10-24T00:49:46.081Z,100480.44
2022-10-24T00:52:18.357Z,100471.88
2022-10-24T00:54:48.113Z,100478.63
2022-10-24T00:57:23.625Z,100484.22
2022-10-24T00:59:59.110Z,100475.47
2022-10-24T01:02:28.298Z,100476.63
2022-10-24T01:04:57.470Z,100475.66
2022-10-24T01:07:41.918Z,100475.66
2022-10-24T01:10:30.196Z,100470.69
2022-10-24T01:13:10.778Z,100465.41
2022-10-24T01:15:47.714Z,100463.59
2022-10-24T01:18:24.082Z,100448.75
2022-10-24T01:21:16.736Z,100451.41
2022-10-24T01:24:04.891Z,100452.03
2022-10-24T01:26:55.856Z,100443.44
2022-10-24T01:29:47.341Z,100442.63
2022-10-24T01:32:24.074Z,100449.47
2022-10-24T01:35:00.450Z,100449.97
2022-10-24T01:37:36.418Z,100453.59
2022-10-24T01:40:10.285Z,100442.88
2022-10-24T01:42:41.406Z,100447.94
2022-10-24T01:45:16.282Z,100440.38
2022-10-24T01:47:51.015Z,100438.44
2022-10-24T01:50:23.131Z,100440.22
2022-10-24T01:52:54.361Z,100441.69
2022-10-24T01:55:24.199Z,100442.53
2022-10-24T01:57:53.182Z,100435.53
2022-10-24T02:00:25.195Z,100438.63
2022-10-24T02:02:58.196Z,100435.84
2022-10-24T02:05:32.922Z,100440.94
2022-10-24T02:08:06.196Z,100444.22
2022-10-24T02:10:39.178Z,100435.34
2022-10-24T02:13:17.630Z,100437.78
2022-10-24T02:15:52.691Z,100428.22
2022-10-24T02:18:22.218Z,100429.34
2022-10-24T02:20:59.523Z,100425.72
2022-10-24T02:23:34.307Z,100426.56
2022-10-24T02:26:07.960Z,100417.16
2022-10-24T02:28:42.066Z,100419.81
2022-10-24T02:31:17.263Z,100419.50
2022-10-24T02:33:49.146Z,100417.31
2022-10-24T02:36:27.095Z,100411.72
2022-10-24T02:38:58.190Z,100405.63
2022-10-24T02:41:31.244Z,100406.94
2022-10-24T02:44:03.436Z,100400.31
2022-10-24T02:46:35.244Z,100388.81
2022-10-24T02:49:05.820Z,100388.44
2022-10-24T02:51:37.937Z,100390.44
2022-10-24T02:54:07.795Z,100381.56
2022-10-24T02:56:38.636Z,100384.00
2022-10-24T03:01:43.024Z,100392.59
2022-10-24T03:04:12.064Z,100388.44
2022-10-24T03:06:41.211Z,100392.88
2022-10-24T03:09:10.404Z,100385.75
2022-10-24T03:11:39.500Z,100391.88
2022-10-24T03:14:08.649Z,100381.50
2022-10-24T03:16:37.865Z,100377.22
2022-10-24T03:19:08.337Z,100371.91
2022-10-24T03:21:37.495Z,100368.13
2022-10-24T03:26:37.130Z,100368.91
2022-10-24T03:29:06.125Z,100367.59
2022-10-24T03:31:36.401Z,100354.81
2022-10-24T03:34:06.711Z,100355.97
2022-10-24T03:36:35.690Z,100355.91
2022-10-24T03:39:05.383Z,100355.09
2022-10-24T03:41:34.361Z,100360.53
2022-10-24T03:44:03.394Z,100359.88
2022-10-24T03:46:32.536Z,100364.78
2022-10-24T03:51:36.821Z,100368.00
2022-10-24T03:54:06.028Z,100361.97
2022-10-24T03:56:34.960Z,100354.78
2022-10-24T03:59:03.939Z,100358.31
2022-10-24T04:01:33.110Z,100359.97
2022-10-24T04:04:02.599Z,100361.31
2022-10-24T04:06:34.097Z,100359.59
2022-10-24T04:09:06.852Z,100355.34
2022-10-24T04:11:35.990Z,100364.53
2022-10-24T04:14:05.532Z,100355.03
2022-10-24T04:16:34.868Z,100344.59
2022-10-24T04:19:04.184Z,100350.31
2022-10-24T04:21:33.252Z,100350.81
2022-10-24T04:24:02.237Z,100352.94
2022-10-24T04:26:32.589Z,100350.78
2022-10-24T04:29:01.554Z,100343.03
2022-10-24T04:31:31.116Z,100339.78
2022-10-24T04:34:00.091Z,100328.22
2022-10-24T04:36:29.060Z,100330.34
2022-10-24T04:38:58.116Z,100331.94
2022-10-24T04:41:27.121Z,100338.53
2022-10-24T04:43:57.401Z,100335.75
2022-10-24T04:46:26.412Z,100338.09
2022-10-24T04:48:55.568Z,100350.19
2022-10-24T04:51:24.586Z,100341.50
2022-10-24T04:53:53.531Z,100339.44
2022-10-24T04:56:22.773Z,100337.72
2022-10-24T04:58:51.718Z,100341.50
2022-10-24T05:01:22.063Z,100343.28
2022-10-24T05:03:51.177Z,100336.69
2022-10-24T05:06:20.211Z,100340.72
2022-10-24T05:08:49.191Z,100342.91
2022-10-24T05:11:18.209Z,100338.94
2022-10-24T05:13:47.141Z,100340.28
2022-10-24T05:16:16.444Z,100345.84
2022-10-24T05:18:46.767Z,100340.59
2022-10-24T05:21:15.815Z,100342.91
2022-10-24T05:23:44.853Z,100342.38
2022-10-24T05:26:13.814Z,100342.69
2022-10-24T05:28:42.775Z,100332.31
2022-10-24T05:31:11.810Z,100341.88
2022-10-24T05:33:40.924Z,100344.19
2022-10-24T05:36:11.640Z,100339.84
2022-10-24T05:38:40.659Z,100339.84
2022-10-24T05:41:09.709Z,100339.69
2022-10-24T05:43:38.857Z,100338.88
2022-10-24T05:46:08.063Z,100345.91
2022-10-24T05:48:37.606Z,100343.91
2022-10-24T05:51:06.907Z,100344.75
2022-10-24T05:53:37.212Z,100343.47
2022-10-24T05:56:06.635Z,100339.31
2022-10-24T05:58:35.693Z,100336.94
2022-10-24T06:01:04.761Z,100342.19
2022-10-24T06:03:33.786Z,100348.84
2022-10-24T06:06:05.808Z,100341.69
2022-10-24T06:08:37.274Z,100345.91
2022-10-24T06:11:09.983Z,100338.16
2022-10-24T06:13:39.769Z,100352.34
2022-10-24T06:16:09.630Z,100354.53
2022-10-24T06:18:39.719Z,100352.66
2022-10-24T06:21:10.488Z,100350.72
2022-10-24T06:23:41.244Z,100343.50
2022-10-24T06:26:11.387Z,100342.53
2022-10-24T06:28:40.612Z,100339.59
2022-10-24T06:31:11.275Z,100340.03
2022-10-24T06:33:40.866Z,100342.00
2022-10-24T06:36:10.318Z,100334.63
2022-10-24T06:38:40.798Z,100340.72
2022-10-24T06:41:10.224Z,100332.66
2022-10-24T06:43:41.993Z,100340.09
2022-10-24T06:46:13.949Z,100336.63
2022-10-24T06:48:42.905Z,100338.16
2022-10-24T06:51:15.450Z,100336.19
2022-10-24T06:53:45.736Z,100340.66
2022-10-24T06:56:14.895Z,100339.25
2022-10-24T06:58:43.856Z,100339.06
2022-10-24T07:01:15.309Z,100342.91
2022-10-24T07:03:44.610Z,100344.91
2022-10-24T07:06:18.666Z,100360.59
2022-10-24T07:08:49.696Z,100355.47
2022-10-24T07:11:18.757Z,100347.94
2022-10-24T07:13:47.985Z,100356.56
2022-10-24T07:16:17.551Z,100359.75
2022-10-24T07:18:46.676Z,100365.53
2022-10-24T07:21:19.301Z,100365.06
2022-10-24T07:23:51.627Z,100364.88
2022-10-24T07:26:21.927Z,100366.34
2022-10-24T07:28:53.590Z,100377.19
2022-10-24T07:31:24.721Z,100368.16
2022-10-24T07:33:55.217Z,100372.63
2022-10-24T07:36:26.112Z,100384.41
2022-10-24T07:38:58.345Z,100377.34
2022-10-24T07:41:30.063Z,100376.84
2022-10-24T07:44:00.186Z,100382.31
2022-10-24T07:46:29.305Z,100379.50
2022-10-24T07:48:58.267Z,100378.38
2022-10-24T07:51:28.446Z,100385.47
2022-10-24T07:53:59.931Z,100381.66
2022-10-24T07:56:28.894Z,100394.84
2022-10-24T07:58:58.806Z,100393.22
2022-10-24T08:01:29.474Z,100405.09
2022-10-24T08:03:58.710Z,100395.22
2022-10-24T08:06:30.842Z,100384.81
2022-10-24T08:09:01.154Z,100389.94
2022-10-24T08:11:32.570Z,100383.03
2022-10-24T08:14:02.305Z,100386.50
2022-10-24T08:16:31.261Z,100387.00
2022-10-24T08:19:00.689Z,100386.66
2022-10-24T08:21:31.261Z,100375.41
2022-10-24T08:24:01.502Z,100371.50
2022-10-24T08:26:30.452Z,100375.59
2022-10-24T08:28:59.350Z,100372.44
2022-10-24T08:31:28.246Z,100370.41
2022-10-24T08:33:57.574Z,100361.19
2022-10-24T08:36:28.706Z,100371.09
2022-10-24T08:38:58.262Z,100375.19
2022-10-24T08:41:32.868Z,100364.44
2022-10-24T08:44:05.071Z,100370.84
2022-10-24T08:46:50.216Z,100360.72
2022-10-24T08:49:29.105Z,100374.91
2022-10-24T08:52:02.197Z,100358.31
2022-10-24T08:54:36.847Z,100365.38
2022-10-24T08:57:14.605Z,100355.59
2022-10-24T08:59:43.503Z,100356.84
2022-10-24T09:02:21.111Z,100357.59
2022-10-24T09:04:54.730Z,100358.13
2022-10-24T09:10:06.825Z,100363.38
2022-10-24T09:12:39.983Z,100355.69
2022-10-24T09:15:16.644Z,100360.59
2022-10-24T09:17:46.193Z,100358.03
2022-10-24T09:20:25.527Z,100363.22
2022-10-24T09:22:55.360Z,100358.94
2022-10-24T09:25:29.574Z,100355.81
2022-10-24T09:28:03.770Z,100358.84
2022-10-24T09:30:35.921Z,100363.22
2022-10-24T09:33:13.172Z,100362.59
2022-10-24T09:35:43.622Z,100359.75
2022-10-24T09:38:33.651Z,100357.47
2022-10-24T09:41:06.829Z,100353.81
2022-10-24T09:43:46.902Z,100356.94
2022-10-24T09:46:19.102Z,100350.81
2022-10-24T09:48:52.979Z,100349.63
2022-10-24T09:51:33.568Z,100350.38
2022-10-24T09:54:23.714Z,100348.28
2022-10-24T09:56:58.308Z,100360.78
2022-10-24T09:59:36.980Z,100357.31
2022-10-24T10:02:25.578Z,100354.94
2022-10-24T10:05:22.126Z,100340.84
2022-10-24T10:07:52.823Z,100346.84
2022-10-24T10:10:34.809Z,100342.81
2022-10-24T10:13:12.080Z,100348.56
2022-10-24T10:15:48.126Z,100343.09
2022-10-24T10:18:30.179Z,100351.28
2022-10-24T10:21:02.341Z,100338.09
2022-10-24T10:23:33.779Z,100348.75
2022-10-24T10:26:12.633Z,100335.06
2022-10-24T10:28:53.336Z,100339.50
2022-10-24T10:31:27.724Z,100339.34
2022-10-24T10:34:24.271Z,100339.47
2022-10-24T10:37:07.940Z,100344.53
2022-10-24T10:39:54.286Z,100337.09
2022-10-24T10:42:30.826Z,100340.13
2022-10-24T10:45:14.758Z,100330.63
2022-10-24T10:47:57.589Z,100340.38
2022-10-24T10:50:38.144Z,100344.47
2022-10-24T10:53:21.409Z,100337.88
2022-10-24T10:55:58.836Z,100335.94
2022-10-24T10:58:40.166Z,100342.63
2022-10-24T11:01:20.493Z,100340.47
2022-10-24T11:03:59.497Z,100356.59
2022-10-24T11:06:41.433Z,100344.91
2022-10-24T11:09:28.835Z,100347.78
2022-10-24T11:12:10.523Z,100352.88
2022-10-24T11:14:44.129Z,100352.09
2022-10-24T11:17:17.873Z,100351.28
2022-10-24T11:19:57.592Z,100348.63
2022-10-24T11:22:30.610Z,100352.66
2022-10-24T11:25:04.142Z,100347.63
2022-10-24T11:27:39.972Z,100345.69
2022-10-24T11:30:16.669Z,100351.53
2022-10-24T11:32:53.353Z,100357.22
2022-10-24T11:35:29.731Z,100352.38
2022-10-24T11:38:03.800Z,100350.78
2022-10-24T11:40:33.998Z,100337.09
2022-10-24T11:43:14.564Z,100333.47
2022-10-24T11:45:48.374Z,100342.88
2022-10-24T11:48:24.179Z,100348.03
2022-10-24T11:50:58.216Z,100336.03
2022-10-24T11:53:52.415Z,100342.69
2022-10-24T11:56:30.737Z,100341.25
2022-10-24T11:59:02.455Z,100338.84
2022-10-24T12:02:00.219Z,100340.44
2022-10-24T12:05:06.935Z,100328.84
2022-10-24T12:07:59.453Z,100335.88
2022-10-24T12:10:48.906Z,100339.66
2022-10-24T12:13:36.611Z,100343.66
2022-10-24T12:16:13.874Z,100346.56
2022-10-24T12:18:46.278Z,100348.66
2022-10-24T12:21:24.769Z,100357.72
2022-10-24T12:23:58.616Z,100349.53
2022-10-24T12:26:30.433Z,100351.22
2022-10-24T12:29:01.694Z,100345.88
2022-10-24T12:31:33.142Z,100341.09
2022-10-24T12:34:48.770Z,100344.75
2022-10-24T12:37:37.949Z,100340.47
2022-10-24T12:40:40.216Z,100340.41
2022-10-24T12:43:17.702Z,100347.69
2022-10-24T12:45:46.767Z,100339.28
2022-10-24T12:48:36.869Z,100339.56
2022-10-24T12:51:29.255Z,100339.28
2022-10-24T12:54:14.591Z,100347.31
2022-10-24T12:57:16.606Z,100324.13
2022-10-24T12:59:50.513Z,100331.59
2022-10-24T13:02:49.812Z,100350.31
2022-10-24T13:05:46.451Z,100334.59
2022-10-24T13:08:35.470Z,100341.50
2022-10-24T13:11:15.841Z,100343.69
2022-10-24T13:14:04.176Z,100349.34
2022-10-24T13:16:44.648Z,100347.19
2022-10-24T13:19:18.462Z,100344.09
2022-10-24T13:21:50.157Z,100335.13
2022-10-24T13:24:36.555Z,100334.16
2022-10-24T13:27:28.824Z,100337.88
2022-10-24T13:30:23.751Z,100345.47
2022-10-24T13:33:28.975Z,100342.69
2022-10-24T13:36:06.122Z,100335.75
2022-10-24T13:38:41.647Z,100343.88
2022-10-24T13:41:14.326Z,100356.41
2022-10-24T13:43:49.403Z,100350.28
2022-10-24T13:46:27.573Z,100354.38
2022-10-24T13:48:59.161Z,100355.94
2022-10-24T13:51:37.396Z,100356.72
2022-10-24T13:54:12.293Z,100375.44
2022-10-24T13:56:44.315Z,100371.38
2022-10-24T13:59:33.517Z,100389.28
2022-10-24T14:02:06.234Z,100381.75
2022-10-24T14:04:37.005Z,100378.97
2022-10-24T14:07:08.779Z,100380.03
2022-10-24T14:09:42.656Z,100369.47
2022-10-24T14:12:20.473Z,100368.44
2022-10-24T14:14:51.656Z,100367.97
2022-10-24T14:17:25.943Z,100364.34
2022-10-24T14:19:59.805Z,100381.41
2022-10-24T14:22:35.872Z,100374.66
2022-10-24T14:25:05.862Z,100381.97
2022-10-24T14:27:35.350Z,100385.34
2022-10-24T14:30:06.469Z,100391.94
2022-10-24T14:32:35.511Z,100382.88
2022-10-24T14:35:06.526Z,100378.50
2022-10-24T14:37:38.446Z,100389.91
2022-10-24T14:40:15.581Z,100393.66
2022-10-24T14:42:46.869Z,100388.38
2022-10-24T14:45:27.524Z,100395.41
2022-10-24T14:47:58.852Z,100408.00
2022-10-24T14:50:41.566Z,100392.56
2022-10-24T14:53:25.159Z,100389.84
2022-10-24T14:55:56.508Z,100382.25
2022-10-24T14:58:27.341Z,100388.63
2022-10-24T15:00:58.257Z,100380.06
2022-10-24T15:03:28.721Z,100390.66
2022-10-24T15:06:08.418Z,100397.66
2022-10-24T15:11:21.572Z,100388.78
2022-10-24T15:14:05.714Z,100388.72
2022-10-24T15:16:38.634Z,100401.06
2022-10-24T15:19:13.584Z,100390.81
2022-10-24T15:21:45.760Z,100406.88
2022-10-24T15:24:24.054Z,100396.84
2022-10-24T15:26:53.783Z,100391.97
2022-10-24T15:29:26.473Z,100391.31
2022-10-24T15:31:55.387Z,100393.31
2022-10-24T15:34:27.181Z,100393.91
2022-10-24T15:36:57.667Z,100396.97
2022-10-24T15:39:27.238Z,100392.44
2022-10-24T15:41:56.289Z,100390.84
2022-10-24T15:44:27.783Z,100399.16
2022-10-24T15:46:57.094Z,100402.16
2022-10-24T15:49:26.847Z,100404.72
2022-10-24T15:51:58.990Z,100411.47
2022-10-24T15:54:28.189Z,100408.34
2022-10-24T15:56:59.459Z,100411.03
2022-10-24T15:59:30.582Z,100418.53
2022-10-24T16:02:03.022Z,100428.09
2022-10-24T16:04:33.351Z,100427.84
2022-10-24T16:07:03.654Z,100423.97
2022-10-24T16:09:32.701Z,100432.72
2022-10-24T16:12:01.639Z,100424.25
2022-10-24T16:14:30.880Z,100439.59
2022-10-24T16:17:00.238Z,100434.13
2022-10-24T16:19:29.184Z,100435.47
2022-10-24T16:21:58.696Z,100437.50
2022-10-24T16:24:30.085Z,100440.13
2022-10-24T16:26:59.058Z,100445.94
2022-10-24T16:29:28.147Z,100431.13
2022-10-24T16:31:57.062Z,100449.88
2022-10-24T16:34:25.978Z,100447.13
2022-10-24T16:36:56.024Z,100451.94
2022-10-24T16:39:25.040Z,100453.16
2022-10-24T16:41:58.324Z,100450.53
2022-10-24T16:44:27.730Z,100452.25
2022-10-24T16:46:56.667Z,100471.25
2022-10-24T16:49:25.577Z,100470.63
2022-10-24T16:51:54.486Z,100467.41
2022-10-24T16:54:23.417Z,100473.41
2022-10-24T16:56:53.860Z,100475.56
2022-10-24T16:59:26.250Z,100476.38
2022-10-24T17:01:55.262Z,100465.00
2022-10-24T17:04:24.599Z,100476.06
2022-10-24T17:06:53.517Z,100485.91
2022-10-24T17:09:22.539Z,100484.28
2022-10-24T17:11:51.464Z,100485.41
2022-10-24T17:14:20.353Z,100494.69
2022-10-24T17:16:50.592Z,100496.69
2022-10-24T17:19:19.633Z,100502.22
2022-10-24T17:21:50.786Z,100499.47
2022-10-24T17:24:21.700Z,100508.56
2022-10-24T17:26:51.187Z,100504.41
2022-10-24T17:29:26.007Z,100516.00
2022-10-24T17:31:57.724Z,100518.47
2022-10-24T17:34:27.357Z,100516.66
2022-10-24T17:37:06.017Z,100517.97
2022-10-24T17:39:45.730Z,100519.47
2022-10-24T17:42:15.270Z,100516.16
2022-10-24T17:44:44.993Z,100517.63
2022-10-24T17:47:16.433Z,100520.63
2022-10-24T17:49:46.061Z,100516.19
2022-10-24T17:52:22.399Z,100516.66
2022-10-24T17:54:51.904Z,100532.38
2022-10-24T17:57:20.957Z,100527.25
2022-10-24T17:59:49.981Z,100523.94
2022-10-24T18:02:20.351Z,100528.75
2022-10-24T18:04:51.827Z,100521.66
2022-10-24T18:07:20.728Z,100528.56
2022-10-24T18:09:49.620Z,100528.88
2022-10-24T18:12:18.519Z,100534.63
2022-10-24T18:14:47.434Z,100532.19
2022-10-24T18:17:16.366Z,100530.06
2022-10-24T18:19:48.801Z,100525.22
2022-10-24T18:22:17.779Z,100530.34
2022-10-24T18:24:46.820Z,100539.09
2022-10-24T18:27:15.725Z,100536.91
2022-10-24T18:29:45.727Z,100539.09
2022-10-24T18:32:15.044Z,100550.78
2022-10-24T18:34:44.186Z,100541.88
2022-10-24T18:37:14.857Z,100554.59
2022-10-24T18:39:43.878Z,100553.34
2022-10-24T18:42:24.721Z,100559.47
2022-10-24T18:44:55.072Z,100565.78
2022-10-24T18:47:25.883Z,100561.38
2022-10-24T18:49:56.036Z,100564.16
2022-10-24T18:52:38.765Z,100561.94
2022-10-24T18:55:18.056Z,100561.94
2022-10-24T18:57:47.834Z,100561.81
2022-10-24T19:00:19.442Z,100557.97
2022-10-24T19:02:57.476Z,100573.00
2022-10-24T19:05:37.556Z,100562.31
2022-10-24T19:08:13.463Z,100569.34
2022-10-24T19:10:42.945Z,100568.50
2022-10-24T19:13:12.170Z,100572.94
2022-10-24T19:15:44.092Z,100570.28
2022-10-24T19:18:16.369Z,100572.31
2022-10-24T19:20:45.789Z,100576.09
2022-10-24T19:23:17.255Z,100578.19
2022-10-24T19:25:47.715Z,100571.13
2022-10-24T19:28:18.955Z,100582.13
2022-10-24T19:30:48.956Z,100576.00
2022-10-24T19:33:19.228Z,100580.34
2022-10-24T19:35:48.695Z,100587.84
2022-10-24T19:38:20.501Z,100587.50
2022-10-24T19:40:51.836Z,100588.81
2022-10-24T19:43:21.964Z,100588.06
2022-10-24T19:46:07.050Z,100577.66
2022-10-24T19:48:37.772Z,100587.06
2022-10-24T19:51:10.794Z,100587.56
2022-10-24T19:53:42.702Z,100588.84
2022-10-24T19:56:13.635Z,100586.69
2022-10-24T19:58:43.439Z,100591.94
2022-10-24T20:01:16.487Z,100599.00
2022-10-24T20:03:47.673Z,100599.00
2022-10-24T20:06:17.496Z,100605.88
2022-10-24T20:08:49.156Z,100607.31
2022-10-24T20:11:20.395Z,100612.06
2022-10-24T20:13:50.260Z,100614.66
2022-10-24T20:16:19.772Z,100612.53
2022-10-24T20:18:49.245Z,100611.94
2022-10-24T20:21:19.593Z,100622.59
2022-10-24T20:23:50.928Z,100623.06
2022-10-24T20:26:22.222Z,100627.81
2022-10-24T20:28:53.378Z,100625.19
2022-10-24T20:31:24.735Z,100628.47
2022-10-24T20:33:54.219Z,100636.00
2022-10-24T20:36:23.221Z,100639.59
2022-10-24T20:38:53.839Z,100642.34
2022-10-24T20:41:22.900Z,100643.38
2022-10-24T20:43:54.830Z,100643.72
2022-10-24T20:46:23.868Z,100646.34
2022-10-24T20:48:53.363Z,100651.72
2022-10-24T20:51:23.338Z,100652.00
2022-10-24T20:53:54.116Z,100655.66
2022-10-24T20:56:26.501Z,100660.59
2022-10-24T20:58:56.992Z,100663.22
2022-10-24T21:01:27.981Z,100667.66
2022-10-24T21:03:58.201Z,100666.59
2022-10-24T21:06:28.781Z,100664.28
2022-10-24T21:09:00.985Z,100670.06
2022-10-24T21:11:31.821Z,100669.91
2022-10-24T21:14:02.645Z,100670.38
2022-10-24T21:16:31.654Z,100669.22
2022-10-24T21:19:01.570Z,100679.63
2022-10-24T21:21:30.700Z,100665.75
2022-10-24T21:24:05.804Z,100674.13
2022-10-24T21:26:38.050Z,100679.50
2022-10-24T21:29:09.151Z,100677.00
2022-10-24T21:31:43.699Z,100678.88
2022-10-24T21:34:12.608Z,100677.25
2022-10-24T21:36:41.571Z,100674.81
2022-10-24T21:39:15.387Z,100677.25
2022-10-24T21:41:45.175Z,100684.84
2022-10-24T21:44:14.427Z,100676.03
2022-10-24T21:46:43.485Z,100684.41
2022-10-24T21:49:12.789Z,100684.50
2022-10-24T21:51:43.750Z,100692.84
2022-10-24T21:54:20.117Z,100699.13
2022-10-24T21:56:49.294Z,100697.00
2022-10-24T21:59:20.927Z,100696.25
2022-10-24T22:01:51.164Z,100698.66
2022-10-24T22:04:20.652Z,100707.84
2022-10-24T22:06:50.168Z,100715.56
2022-10-24T22:09:23.479Z,100707.28
2022-10-24T22:11:54.424Z,100713.13
2022-10-24T22:14:23.355Z,100709.41
2022-10-24T22:16:52.332Z,100714.50
2022-10-24T22:19:21.406Z,100710.88
2022-10-24T22:21:51.774Z,100714.44
2022-10-24T22:24:23.956Z,100727.22
2022-10-24T22:26:53.675Z,100720.53
2022-10-24T22:29:24.476Z,100729.84
2022-10-24T22:31:54.575Z,100726.16
2022-10-24T22:34:25.870Z,100731.53
2022-10-24T22:37:12.345Z,100739.78
2022-10-24T22:39:43.432Z,100727.38
2022-10-24T22:42:16.182Z,100735.75
2022-10-24T22:44:48.898Z,100733.38
2022-10-24T22:47:41.464Z,100741.00
2022-10-24T22:50:30.302Z,100733.13
2022-10-24T22:52:59.793Z,100738.66
2022-10-24T22:55:34.241Z,100737.16
2022-10-24T22:58:03.693Z,100745.19
2022-10-24T23:00:33.159Z,100742.50
2022-10-24T23:03:10.992Z,100745.19
2022-10-24T23:05:47.830Z,100743.53
2022-10-24T23:08:30.032Z,100749.69
2022-10-24T23:11:00.951Z,100751.59
2022-10-24T23:13:30.401Z,100755.25
2022-10-24T23:16:05.884Z,100752.97
2022-10-24T23:18:35.424Z,100758.16
2022-10-24T23:21:12.333Z,100762.88
2022-10-24T23:23:41.819Z,100764.25
2022-10-24T23:26:27.133Z,100764.66
2022-10-24T23:29:03.772Z,100762.63
2022-10-24T23:31:33.238Z,100761.56
2022-10-24T23:34:02.818Z,100766.00
2022-10-24T23:36:32.264Z,100760.19
2022-10-24T23:39:01.584Z,100763.25
2022-10-24T23:41:32.640Z,100764.81
2022-10-24T23:44:02.065Z,100764.63
2022-10-24T23:46:36.682Z,100762.16
2022-10-24T23:49:17.632Z,100759.38
2022-10-24T23:51:56.716Z,100758.00
2022-10-24T23:54:31.321Z,100768.16
2022-10-24T23:57:02.384Z,100756.78
2022-10-24T23:59:31.261Z,100765.13
